Portada
METAR-TAF:

METAR-TAF

Aeroports :

Fasa, Iran

latitud: 28-58N, longitud: 053-41E, altitud: 1383 m

Observació

L'informe es va fer fa 1 hora i 7 minuts, a les 11:00 UTC
Vent 19 kt del Oest/Sud-Oest
Temperatura 41°C
Humitat 9%
Pressió 1010 hPa
Visibilitat 10 km o més
Escasses núvols a una alçada de 3500 ft, Cumulus congestus.

METAR: OISF 231100Z 24019KT 9999 FEW035TCU 41/02 Q1010 A2983

Hora: 16:37 (12:07 UTC)


TAF: manca

Observacions i pronòstics meteorològics de més de 4000 aeroports (METAR i TAF).

Les estacions disponibles són els punts grocs i vermells al mapa.

Posi el ratolí al punt desitjat per veure el nom de l'estació.

Feu clic per veure les observacions i els pronòstics meteorològics.

Per canviar el mapa: feu clic els botons verds amb una creu de color negre per apropar; al botó verd amb un guió per allunyar la imatge; o en les fletxes verdes per a mapes adjacents.


METAR-TAF: